»·PEaware :: N973SE KSNA-KSNA

N973SE :: KSNA-KSNA

FLIGHT INFORMATION

Flight Status: Arrived
Operator: Privately registered:
United States
More flights under this callsign
Pilot: Stig E. (4778)
Aircraft: CESSNA 310
(C310)
More flights by this aircraft type
Origin: KSNA John Wayne-Orange Co
United States
Destination: KSNA John Wayne-Orange Co
United States
More flights between these airports :: More routes between these airports
Route: KNKX L08 KPSP KRIV SAGER
File this flight plan on PilotEdge
Remarks:
Altitude:
(Current/Filed)
14,500ft
Speed:
(Current/Filed)
170kts
Departed: 27-Dec-18 11:25 PM
Arrived: 28-Dec-18 12:39 AM
Distance/Time
Traveled:
0nm/1:14
Distance/Time
To Go:
Arrived

Flight Plot

Page will automatically refresh every two minutes.

Flight plan parsing failed; only flown route is shown


Map Options




Map Legend


Flown Route
Filed Route
Departure Airport
Arrival Airport
Navaid (VOR, NDB)
Fix

Horizontal Profiles

Position Reports

Time Latitude Longitude Heading Altitude Ground
Speed
27-Dec-18 23:20 33.679648 -117.862038 117 59ft 0kts
27-Dec-18 23:21 33.679648 -117.862038 117 59ft 0kts
27-Dec-18 23:22 33.679585 -117.862011 196 59ft 3kts
27-Dec-18 23:23 33.679966 -117.863635 300 59ft 0kts
27-Dec-18 23:24 33.680047 -117.864176 216 59ft 12kts
27-Dec-18 23:25 33.654492 -117.880782 207 954ft 138kts
27-Dec-18 23:26 33.625279 -117.858725 117 2102ft 152kts
27-Dec-18 23:27 33.605732 -117.812461 121 3199ft 162kts
27-Dec-18 23:28 33.572446 -117.774461 139 4305ft 168kts
27-Dec-18 23:29 33.535007 -117.740149 140 5403ft 171kts
27-Dec-18 23:30 33.496960 -117.705705 139 6500ft 172kts
27-Dec-18 23:31 33.459303 -117.671666 139 7587ft 168kts
27-Dec-18 23:32 33.422011 -117.637982 139 8684ft 168kts
27-Dec-18 23:33 33.384657 -117.604280 139 9780ft 170kts
27-Dec-18 23:34 33.346480 -117.569875 140 10882ft 174kts
27-Dec-18 23:35 33.307475 -117.534768 141 11986ft 178kts
27-Dec-18 23:36 33.267635 -117.498639 140 13093ft 183kts
27-Dec-18 23:36 33.233386 -117.467675 140 14023ft 187kts
27-Dec-18 23:37 33.189163 -117.427926 141 14499ft 220kts
27-Dec-18 23:39 33.129058 -117.374126 141 14481ft 238kts
27-Dec-18 23:39 33.084732 -117.334483 142 14473ft 242kts
27-Dec-18 23:40 33.030340 -117.285896 142 14474ft 247kts
27-Dec-18 23:41 32.974549 -117.236136 143 14475ft 253kts
27-Dec-18 23:43 32.908134 -117.177012 143 14477ft 256kts
27-Dec-18 23:43 32.881653 -117.124445 56 14487ft 216kts
27-Dec-18 23:44 32.908513 -117.061783 50 14473ft 213kts
27-Dec-18 23:45 32.937347 -117.000588 50 14474ft 213kts
27-Dec-18 23:46 32.966598 -116.939309 50 14476ft 214kts
27-Dec-18 23:47 32.995755 -116.878228 51 14479ft 214kts
27-Dec-18 23:48 33.024627 -116.817659 50 14478ft 211kts
27-Dec-18 23:49 33.053255 -116.757519 50 14477ft 208kts
27-Dec-18 23:50 33.081363 -116.698384 50 14477ft 204kts
27-Dec-18 23:51 33.108130 -116.641983 50 14486ft 201kts
27-Dec-18 23:52 33.135523 -116.584180 50 14485ft 200kts
27-Dec-18 23:53 33.162757 -116.526616 50 14486ft 199kts
27-Dec-18 23:54 33.189272 -116.470483 50 14487ft 199kts
27-Dec-18 23:55 33.216492 -116.412760 50 14490ft 199kts
27-Dec-18 23:56 33.243658 -116.355061 50 14492ft 200kts
27-Dec-18 23:57 33.283246 -116.331527 348 14494ft 175kts
27-Dec-18 23:58 33.330708 -116.345081 345 14491ft 176kts
27-Dec-18 23:59 33.377947 -116.360002 345 14491ft 176kts
28-Dec-18 00:00 33.425097 -116.375207 345 14490ft 176kts
28-Dec-18 00:01 33.472232 -116.390484 345 14490ft 176kts
28-Dec-18 00:02 33.519153 -116.405721 345 14490ft 175kts
28-Dec-18 00:03 33.566101 -116.420986 345 14493ft 175kts
28-Dec-18 00:04 33.613080 -116.436278 345 14497ft 175kts
28-Dec-18 00:05 33.659921 -116.451543 345 14510ft 175kts
28-Dec-18 00:06 33.706732 -116.466815 345 14521ft 175kts
28-Dec-18 00:07 33.753574 -116.482116 345 14530ft 175kts
28-Dec-18 00:08 33.800416 -116.497433 345 14532ft 175kts
28-Dec-18 00:09 33.830454 -116.536665 288 14534ft 193kts
28-Dec-18 00:10 33.836771 -116.601692 284 14263ft 196kts
28-Dec-18 00:11 33.841606 -116.665729 283 13729ft 191kts
28-Dec-18 00:12 33.846167 -116.728895 283 13214ft 190kts
28-Dec-18 00:13 33.850671 -116.792248 283 12698ft 190kts
28-Dec-18 00:14 33.855122 -116.855427 282 12182ft 190kts
28-Dec-18 00:15 33.859537 -116.918508 281 11669ft 189kts
28-Dec-18 00:16 33.863887 -116.981297 280 11152ft 186kts
28-Dec-18 00:17 33.868119 -117.042788 279 10636ft 183kts
28-Dec-18 00:18 33.872294 -117.103839 278 10125ft 183kts
28-Dec-18 00:19 33.876418 -117.164647 278 9597ft 183kts
28-Dec-18 00:20 33.880610 -117.226792 278 8895ft 187kts
28-Dec-18 00:21 33.884942 -117.289146 278 8191ft 188kts
28-Dec-18 00:22 33.890051 -117.351782 279 7481ft 187kts
28-Dec-18 00:23 33.895307 -117.414103 278 6774ft 187kts
28-Dec-18 00:24 33.900478 -117.474936 278 6085ft 187kts
28-Dec-18 00:25 33.905736 -117.537137 277 5381ft 187kts
28-Dec-18 00:26 33.910929 -117.598963 277 4762ft 184kts
28-Dec-18 00:27 33.915787 -117.659865 276 4161ft 183kts
28-Dec-18 00:28 33.913751 -117.719261 222 3544ft 185kts
28-Dec-18 00:29 33.871653 -117.747259 207 3025ft 166kts
28-Dec-18 00:30 33.831179 -117.773152 207 2512ft 163kts
28-Dec-18 00:31 33.791134 -117.798887 207 2005ft 164kts
28-Dec-18 00:32 33.754378 -117.822298 208 1667ft 130kts
28-Dec-18 00:33 33.724935 -117.843268 221 1599ft 119kts
28-Dec-18 00:34 33.698687 -117.868970 209 1602ft 123kts
28-Dec-18 00:35 33.667702 -117.890017 209 1264ft 132kts
28-Dec-18 00:36 33.650078 -117.887274 36 691ft 109kts
28-Dec-18 00:37 33.672527 -117.870918 29 60ft 54kts
28-Dec-18 00:38 33.673975 -117.872170 59 59ft 0kts
28-Dec-18 00:39 33.673975 -117.872170 59 59ft 0kts
28-Dec-18 00:40 33.673975 -117.872170 59 59ft 0kts
28-Dec-18 00:41 33.673975 -117.872170 59 59ft 0kts
28-Dec-18 00:42 33.673975 -117.872170 59 59ft 0kts

Navigation Log

Ident Type
Flight plan parsing failed, navigation log unavailable